sensor_id;sensor_type;location;lat;lon;timestamp;temperature;humidity
67897;DHT22;54698;48.428;9.964;2022-12-07T00:01:16;1.80;99.90
67897;DHT22;54698;48.428;9.964;2022-12-07T00:03:46;1.70;99.90
67897;DHT22;54698;48.428;9.964;2022-12-07T00:06:14;1.70;99.90
67897;DHT22;54698;48.428;9.964;2022-12-07T00:08:43;1.70;99.90
67897;DHT22;54698;48.428;9.964;2022-12-07T00:11:11;1.80;99.90
67897;DHT22;54698;48.428;9.964;2022-12-07T00:13:39;1.80;99.90
67897;DHT22;54698;48.428;9.964;2022-12-07T00:16:07;1.70;99.90
67897;DHT22;54698;48.428;9.964;2022-12-07T00:18:35;1.70;99.90
67897;DHT22;54698;48.428;9.964;2022-12-07T00:21:01;1.70;99.90
67897;DHT22;54698;48.428;9.964;2022-12-07T00:23:29;1.70;99.90
67897;DHT22;54698;48.428;9.964;2022-12-07T00:26:03;1.70;99.90
67897;DHT22;54698;48.428;9.964;2022-12-07T00:28:30;1.80;99.90
67897;DHT22;54698;48.428;9.964;2022-12-07T00:31:01;1.70;99.90
67897;DHT22;54698;48.428;9.964;2022-12-07T00:33:28;1.70;99.90
67897;DHT22;54698;48.428;9.964;2022-12-07T00:35:56;1.70;99.90
67897;DHT22;54698;48.428;9.964;2022-12-07T00:38:22;1.80;99.90
67897;DHT22;54698;48.428;9.964;2022-12-07T00:40:54;1.80;99.90
67897;DHT22;54698;48.428;9.964;2022-12-07T00:43:23;1.70;99.90
67897;DHT22;54698;48.428;9.964;2022-12-07T00:45:49;1.70;99.90
67897;DHT22;54698;48.428;9.964;2022-12-07T00:48:15;1.80;99.90
67897;DHT22;54698;48.428;9.964;2022-12-07T00:50:42;1.80;99.90
67897;DHT22;54698;48.428;9.964;2022-12-07T00:53:08;1.90;99.90
67897;DHT22;54698;48.428;9.964;2022-12-07T00:55:34;1.80;99.90
67897;DHT22;54698;48.428;9.964;2022-12-07T00:58:01;1.80;99.90
67897;DHT22;54698;48.428;9.964;2022-12-07T01:00:30;1.80;99.90
67897;DHT22;54698;48.428;9.964;2022-12-07T01:02:56;1.80;99.90
67897;DHT22;54698;48.428;9.964;2022-12-07T01:05:22;1.80;99.90
67897;DHT22;54698;48.428;9.964;2022-12-07T01:07:48;1.90;99.90
67897;DHT22;54698;48.428;9.964;2022-12-07T01:10:14;1.90;99.90
67897;DHT22;54698;48.428;9.964;2022-12-07T01:12:41;2.00;99.90
67897;DHT22;54698;48.428;9.964;2022-12-07T01:15:09;2.10;99.90
67897;DHT22;54698;48.428;9.964;2022-12-07T01:17:36;2.10;99.90
67897;DHT22;54698;48.428;9.964;2022-12-07T01:20:02;2.10;99.90
67897;DHT22;54698;48.428;9.964;2022-12-07T01:22:30;2.10;99.90
67897;DHT22;54698;48.428;9.964;2022-12-07T01:24:56;2.10;99.90
67897;DHT22;54698;48.428;9.964;2022-12-07T01:27:22;2.10;99.90
67897;DHT22;54698;48.428;9.964;2022-12-07T01:29:48;2.00;99.90
67897;DHT22;54698;48.428;9.964;2022-12-07T01:32:15;2.00;99.90
67897;DHT22;54698;48.428;9.964;2022-12-07T01:34:41;2.00;99.90
67897;DHT22;54698;48.428;9.964;2022-12-07T01:37:07;2.00;99.90
67897;DHT22;54698;48.428;9.964;2022-12-07T01:39:33;2.00;99.90
67897;DHT22;54698;48.428;9.964;2022-12-07T01:42:00;1.90;99.90
67897;DHT22;54698;48.428;9.964;2022-12-07T01:44:28;1.90;99.90
67897;DHT22;54698;48.428;9.964;2022-12-07T01:46:56;2.00;99.90
67897;DHT22;54698;48.428;9.964;2022-12-07T01:49:31;1.90;99.90
67897;DHT22;54698;48.428;9.964;2022-12-07T01:52:09;1.90;99.90
67897;DHT22;54698;48.428;9.964;2022-12-07T01:54:39;1.90;99.90
67897;DHT22;54698;48.428;9.964;2022-12-07T01:57:06;1.90;99.90
67897;DHT22;54698;48.428;9.964;2022-12-07T01:59:33;1.90;99.90
67897;DHT22;54698;48.428;9.964;2022-12-07T02:02:03;2.00;99.90
67897;DHT22;54698;48.428;9.964;2022-12-07T02:04:33;1.90;99.90
67897;DHT22;54698;48.428;9.964;2022-12-07T02:07:00;1.90;99.90
67897;DHT22;54698;48.428;9.964;2022-12-07T02:09:27;1.90;99.90
67897;DHT22;54698;48.428;9.964;2022-12-07T02:11:54;1.90;99.90
67897;DHT22;54698;48.428;9.964;2022-12-07T02:14:20;2.00;99.90
67897;DHT22;54698;48.428;9.964;2022-12-07T02:16:55;2.00;99.90
67897;DHT22;54698;48.428;9.964;2022-12-07T02:25:37;2.00;99.90
67897;DHT22;54698;48.428;9.964;2022-12-07T02:28:18;2.00;99.90
67897;DHT22;54698;48.428;9.964;2022-12-07T02:30:52;2.00;99.90
67897;DHT22;54698;48.428;9.964;2022-12-07T02:33:26;2.00;99.90
67897;DHT22;54698;48.428;9.964;2022-12-07T02:35:57;2.00;99.90
67897;DHT22;54698;48.428;9.964;2022-12-07T02:38:29;2.00;99.90
67897;DHT22;54698;48.428;9.964;2022-12-07T02:41:02;2.00;99.90
67897;DHT22;54698;48.428;9.964;2022-12-07T02:43:35;2.00;99.90
67897;DHT22;54698;48.428;9.964;2022-12-07T02:46:09;2.00;99.90
67897;DHT22;54698;48.428;9.964;2022-12-07T02:48:41;2.10;99.90
67897;DHT22;54698;48.428;9.964;2022-12-07T02:51:08;2.10;99.90
67897;DHT22;54698;48.428;9.964;2022-12-07T02:53:36;2.10;99.90
67897;DHT22;54698;48.428;9.964;2022-12-07T02:56:07;2.10;99.90
67897;DHT22;54698;48.428;9.964;2022-12-07T02:58:40;2.10;99.90
67897;DHT22;54698;48.428;9.964;2022-12-07T03:01:24;2.10;99.90
67897;DHT22;54698;48.428;9.964;2022-12-07T03:04:02;2.10;99.90
67897;DHT22;54698;48.428;9.964;2022-12-07T03:06:42;2.20;99.90
67897;DHT22;54698;48.428;9.964;2022-12-07T03:09:14;2.10;99.90
67897;DHT22;54698;48.428;9.964;2022-12-07T03:11:47;2.10;99.90
67897;DHT22;54698;48.428;9.964;2022-12-07T03:14:18;2.10;99.90
67897;DHT22;54698;48.428;9.964;2022-12-07T03:16:53;2.20;99.90
67897;DHT22;54698;48.428;9.964;2022-12-07T03:19:23;2.10;99.90
67897;DHT22;54698;48.428;9.964;2022-12-07T03:21:53;2.10;99.90
67897;DHT22;54698;48.428;9.964;2022-12-07T03:24:24;2.10;99.90
67897;DHT22;54698;48.428;9.964;2022-12-07T03:26:55;2.10;99.90
67897;DHT22;54698;48.428;9.964;2022-12-07T03:29:26;2.00;99.90
67897;DHT22;54698;48.428;9.964;2022-12-07T03:32:00;2.10;99.90
67897;DHT22;54698;48.428;9.964;2022-12-07T03:34:30;2.00;99.90
67897;DHT22;54698;48.428;9.964;2022-12-07T03:37:02;2.00;99.90
67897;DHT22;54698;48.428;9.964;2022-12-07T03:39:34;2.10;99.90
67897;DHT22;54698;48.428;9.964;2022-12-07T03:42:05;2.10;99.90
67897;DHT22;54698;48.428;9.964;2022-12-07T03:44:33;2.10;99.90
67897;DHT22;54698;48.428;9.964;2022-12-07T03:47:03;2.00;99.90
67897;DHT22;54698;48.428;9.964;2022-12-07T03:49:39;1.90;99.90
67897;DHT22;54698;48.428;9.964;2022-12-07T03:52:16;1.80;99.90
67897;DHT22;54698;48.428;9.964;2022-12-07T03:54:49;1.90;99.90
67897;DHT22;54698;48.428;9.964;2022-12-07T03:57:20;1.80;99.90
67897;DHT22;54698;48.428;9.964;2022-12-07T03:59:48;1.80;99.90
67897;DHT22;54698;48.428;9.964;2022-12-07T04:02:16;1.90;99.90
67897;DHT22;54698;48.428;9.964;2022-12-07T04:04:43;2.00;99.90
67897;DHT22;54698;48.428;9.964;2022-12-07T04:07:09;2.00;99.90
67897;DHT22;54698;48.428;9.964;2022-12-07T04:09:36;2.00;99.90
67897;DHT22;54698;48.428;9.964;2022-12-07T04:12:02;1.90;99.90
67897;DHT22;54698;48.428;9.964;2022-12-07T04:14:28;1.90;99.90
67897;DHT22;54698;48.428;9.964;2022-12-07T04:16:55;1.90;99.90
67897;DHT22;54698;48.428;9.964;2022-12-07T04:19:26;1.70;99.90
67897;DHT22;54698;48.428;9.964;2022-12-07T04:21:53;1.70;99.90
67897;DHT22;54698;48.428;9.964;2022-12-07T04:24:20;1.60;99.90
67897;DHT22;54698;48.428;9.964;2022-12-07T04:26:47;1.50;99.90
67897;DHT22;54698;48.428;9.964;2022-12-07T04:29:13;1.50;99.90
67897;DHT22;54698;48.428;9.964;2022-12-07T04:31:40;1.50;99.90
67897;DHT22;54698;48.428;9.964;2022-12-07T04:34:06;1.60;99.90
67897;DHT22;54698;48.428;9.964;2022-12-07T04:36:34;1.60;99.90
67897;DHT22;54698;48.428;9.964;2022-12-07T04:39:01;1.60;99.90
67897;DHT22;54698;48.428;9.964;2022-12-07T04:41:30;1.50;99.90
67897;DHT22;54698;48.428;9.964;2022-12-07T04:43:59;1.40;99.90
67897;DHT22;54698;48.428;9.964;2022-12-07T04:46:28;1.40;99.90
67897;DHT22;54698;48.428;9.964;2022-12-07T04:48:55;1.30;99.90
67897;DHT22;54698;48.428;9.964;2022-12-07T04:51:23;1.40;99.90
67897;DHT22;54698;48.428;9.964;2022-12-07T04:53:52;1.40;99.90
67897;DHT22;54698;48.428;9.964;2022-12-07T04:56:19;1.40;99.90
67897;DHT22;54698;48.428;9.964;2022-12-07T04:58:46;1.40;99.90
67897;DHT22;54698;48.428;9.964;2022-12-07T05:01:14;1.50;99.90
67897;DHT22;54698;48.428;9.964;2022-12-07T05:03:42;1.50;99.90
67897;DHT22;54698;48.428;9.964;2022-12-07T05:06:08;1.40;99.90
67897;DHT22;54698;48.428;9.964;2022-12-07T05:08:35;1.50;99.90
67897;DHT22;54698;48.428;9.964;2022-12-07T05:11:03;1.60;99.90
67897;DHT22;54698;48.428;9.964;2022-12-07T05:13:31;1.60;99.90
67897;DHT22;54698;48.428;9.964;2022-12-07T05:15:57;1.60;99.90
67897;DHT22;54698;48.428;9.964;2022-12-07T05:18:23;1.60;99.90
67897;DHT22;54698;48.428;9.964;2022-12-07T05:20:50;1.50;99.90
67897;DHT22;54698;48.428;9.964;2022-12-07T05:23:15;1.50;99.90
67897;DHT22;54698;48.428;9.964;2022-12-07T05:25:41;1.50;99.90
67897;DHT22;54698;48.428;9.964;2022-12-07T05:28:09;1.50;99.90
67897;DHT22;54698;48.428;9.964;2022-12-07T05:30:38;1.40;99.90
67897;DHT22;54698;48.428;9.964;2022-12-07T05:33:05;1.40;99.90
67897;DHT22;54698;48.428;9.964;2022-12-07T05:35:31;1.30;99.90
67897;DHT22;54698;48.428;9.964;2022-12-07T05:37:56;1.30;99.90
67897;DHT22;54698;48.428;9.964;2022-12-07T05:40:22;1.40;99.90
67897;DHT22;54698;48.428;9.964;2022-12-07T05:42:48;1.40;99.90
67897;DHT22;54698;48.428;9.964;2022-12-07T05:45:16;1.50;99.90
67897;DHT22;54698;48.428;9.964;2022-12-07T05:47:42;1.40;99.90
67897;DHT22;54698;48.428;9.964;2022-12-07T05:50:09;1.30;99.90
67897;DHT22;54698;48.428;9.964;2022-12-07T05:52:35;1.30;99.90
67897;DHT22;54698;48.428;9.964;2022-12-07T05:55:01;1.30;99.90
67897;DHT22;54698;48.428;9.964;2022-12-07T05:57:26;1.40;99.90
67897;DHT22;54698;48.428;9.964;2022-12-07T05:59:52;1.40;99.90
67897;DHT22;54698;48.428;9.964;2022-12-07T06:02:20;1.40;99.90
67897;DHT22;54698;48.428;9.964;2022-12-07T06:04:46;1.50;99.90
67897;DHT22;54698;48.428;9.964;2022-12-07T06:07:15;1.50;99.90
67897;DHT22;54698;48.428;9.964;2022-12-07T06:09:43;1.40;99.90
67897;DHT22;54698;48.428;9.964;2022-12-07T06:12:11;1.40;99.90
67897;DHT22;54698;48.428;9.964;2022-12-07T06:14:38;1.40;99.90
67897;DHT22;54698;48.428;9.964;2022-12-07T06:17:05;1.40;99.90
67897;DHT22;54698;48.428;9.964;2022-12-07T06:19:33;1.40;99.90
67897;DHT22;54698;48.428;9.964;2022-12-07T06:21:59;1.40;99.90
67897;DHT22;54698;48.428;9.964;2022-12-07T06:24:25;1.30;99.90
67897;DHT22;54698;48.428;9.964;2022-12-07T06:26:51;1.20;99.90
67897;DHT22;54698;48.428;9.964;2022-12-07T06:29:18;1.10;99.90
67897;DHT22;54698;48.428;9.964;2022-12-07T06:31:44;1.00;99.90
67897;DHT22;54698;48.428;9.964;2022-12-07T06:34:13;1.00;99.90
67897;DHT22;54698;48.428;9.964;2022-12-07T06:36:41;0.90;99.90
67897;DHT22;54698;48.428;9.964;2022-12-07T06:39:08;0.90;99.90
67897;DHT22;54698;48.428;9.964;2022-12-07T06:41:34;0.90;99.90
67897;DHT22;54698;48.428;9.964;2022-12-07T06:44:04;0.90;99.90
67897;DHT22;54698;48.428;9.964;2022-12-07T06:46:30;0.90;99.90
67897;DHT22;54698;48.428;9.964;2022-12-07T06:48:56;0.90;99.90
67897;DHT22;54698;48.428;9.964;2022-12-07T06:51:23;1.00;99.90
67897;DHT22;54698;48.428;9.964;2022-12-07T06:53:51;1.00;99.90
67897;DHT22;54698;48.428;9.964;2022-12-07T06:56:17;1.00;99.90
67897;DHT22;54698;48.428;9.964;2022-12-07T06:58:43;1.10;99.90
67897;DHT22;54698;48.428;9.964;2022-12-07T07:01:10;1.10;99.90
67897;DHT22;54698;48.428;9.964;2022-12-07T07:03:36;1.20;99.90
67897;DHT22;54698;48.428;9.964;2022-12-07T07:06:02;1.30;99.90
67897;DHT22;54698;48.428;9.964;2022-12-07T07:08:28;1.40;99.90
67897;DHT22;54698;48.428;9.964;2022-12-07T07:10:56;1.50;99.90
67897;DHT22;54698;48.428;9.964;2022-12-07T07:13:22;1.50;99.90
67897;DHT22;54698;48.428;9.964;2022-12-07T07:15:48;1.50;99.90
67897;DHT22;54698;48.428;9.964;2022-12-07T07:18:15;1.40;99.90
67897;DHT22;54698;48.428;9.964;2022-12-07T07:20:41;1.40;99.90
67897;DHT22;54698;48.428;9.964;2022-12-07T07:23:07;1.30;99.90
67897;DHT22;54698;48.428;9.964;2022-12-07T07:25:34;1.30;99.90
67897;DHT22;54698;48.428;9.964;2022-12-07T07:28:02;1.20;99.90
67897;DHT22;54698;48.428;9.964;2022-12-07T07:30:28;1.30;99.90
67897;DHT22;54698;48.428;9.964;2022-12-07T07:32:56;1.30;99.90
67897;DHT22;54698;48.428;9.964;2022-12-07T07:35:22;1.40;99.90
67897;DHT22;54698;48.428;9.964;2022-12-07T07:37:48;1.50;99.90
67897;DHT22;54698;48.428;9.964;2022-12-07T07:40:14;1.60;99.90
67897;DHT22;54698;48.428;9.964;2022-12-07T07:42:40;1.60;99.90
67897;DHT22;54698;48.428;9.964;2022-12-07T07:45:10;1.70;99.90
67897;DHT22;54698;48.428;9.964;2022-12-07T07:47:36;1.80;99.90
67897;DHT22;54698;48.428;9.964;2022-12-07T07:50:02;1.90;99.90
67897;DHT22;54698;48.428;9.964;2022-12-07T07:52:28;2.00;99.90
67897;DHT22;54698;48.428;9.964;2022-12-07T07:54:54;2.00;99.90
67897;DHT22;54698;48.428;9.964;2022-12-07T07:57:20;2.00;99.90
67897;DHT22;54698;48.428;9.964;2022-12-07T07:59:46;1.90;99.90
67897;DHT22;54698;48.428;9.964;2022-12-07T08:02:15;1.90;99.90
67897;DHT22;54698;48.428;9.964;2022-12-07T08:04:42;1.90;99.90
67897;DHT22;54698;48.428;9.964;2022-12-07T08:07:15;1.90;99.90
67897;DHT22;54698;48.428;9.964;2022-12-07T08:09:42;1.90;99.90
67897;DHT22;54698;48.428;9.964;2022-12-07T08:12:08;1.90;99.90
67897;DHT22;54698;48.428;9.964;2022-12-07T08:14:34;1.90;99.90
67897;DHT22;54698;48.428;9.964;2022-12-07T08:17:00;1.90;99.90
67897;DHT22;54698;48.428;9.964;2022-12-07T08:19:28;2.00;99.90
67897;DHT22;54698;48.428;9.964;2022-12-07T08:21:54;2.10;99.90
67897;DHT22;54698;48.428;9.964;2022-12-07T08:24:20;2.20;99.90
67897;DHT22;54698;48.428;9.964;2022-12-07T08:26:46;2.30;99.90
67897;DHT22;54698;48.428;9.964;2022-12-07T08:29:12;2.40;99.90
67897;DHT22;54698;48.428;9.964;2022-12-07T08:31:38;2.40;99.90
67897;DHT22;54698;48.428;9.964;2022-12-07T08:34:04;2.40;99.90
67897;DHT22;54698;48.428;9.964;2022-12-07T08:36:31;2.50;99.90
67897;DHT22;54698;48.428;9.964;2022-12-07T08:38:58;2.40;99.90
67897;DHT22;54698;48.428;9.964;2022-12-07T08:41:24;2.30;99.90
67897;DHT22;54698;48.428;9.964;2022-12-07T08:43:51;2.20;99.90
67897;DHT22;54698;48.428;9.964;2022-12-07T08:46:19;2.20;99.90
67897;DHT22;54698;48.428;9.964;2022-12-07T08:48:57;2.30;99.90
67897;DHT22;54698;48.428;9.964;2022-12-07T08:51:26;2.40;99.90
67897;DHT22;54698;48.428;9.964;2022-12-07T08:53:55;2.40;99.90
67897;DHT22;54698;48.428;9.964;2022-12-07T08:56:22;2.40;99.90
67897;DHT22;54698;48.428;9.964;2022-12-07T08:58:48;2.50;99.90
67897;DHT22;54698;48.428;9.964;2022-12-07T09:01:14;2.50;99.90
67897;DHT22;54698;48.428;9.964;2022-12-07T09:03:40;2.40;99.90
67897;DHT22;54698;48.428;9.964;2022-12-07T09:06:06;2.50;99.90
67897;DHT22;54698;48.428;9.964;2022-12-07T09:08:36;2.50;99.90
67897;DHT22;54698;48.428;9.964;2022-12-07T09:11:06;2.40;99.90
67897;DHT22;54698;48.428;9.964;2022-12-07T09:13:32;2.30;99.90
67897;DHT22;54698;48.428;9.964;2022-12-07T09:15:58;2.30;99.90
67897;DHT22;54698;48.428;9.964;2022-12-07T09:18:24;2.40;99.90
67897;DHT22;54698;48.428;9.964;2022-12-07T09:20:50;2.40;99.90
67897;DHT22;54698;48.428;9.964;2022-12-07T09:23:17;2.50;99.90
67897;DHT22;54698;48.428;9.964;2022-12-07T09:25:44;2.50;99.90
67897;DHT22;54698;48.428;9.964;2022-12-07T09:28:12;2.50;99.90
67897;DHT22;54698;48.428;9.964;2022-12-07T09:30:37;2.50;99.90
67897;DHT22;54698;48.428;9.964;2022-12-07T09:33:03;2.50;99.90
67897;DHT22;54698;48.428;9.964;2022-12-07T09:35:29;2.50;99.90
67897;DHT22;54698;48.428;9.964;2022-12-07T09:37:55;2.50;99.90
67897;DHT22;54698;48.428;9.964;2022-12-07T09:40:23;2.60;99.90
67897;DHT22;54698;48.428;9.964;2022-12-07T09:42:52;2.60;99.90
67897;DHT22;54698;48.428;9.964;2022-12-07T09:45:23;2.70;99.90
67897;DHT22;54698;48.428;9.964;2022-12-07T09:47:50;2.70;99.90
67897;DHT22;54698;48.428;9.964;2022-12-07T09:50:20;2.70;99.90
67897;DHT22;54698;48.428;9.964;2022-12-07T09:52:49;2.80;99.90
67897;DHT22;54698;48.428;9.964;2022-12-07T09:55:17;2.90;99.90
67897;DHT22;54698;48.428;9.964;2022-12-07T09:57:45;3.10;99.90
67897;DHT22;54698;48.428;9.964;2022-12-07T10:00:14;3.10;99.90
67897;DHT22;54698;48.428;9.964;2022-12-07T10:02:44;3.00;99.90
67897;DHT22;54698;48.428;9.964;2022-12-07T10:05:15;3.10;99.90
67897;DHT22;54698;48.428;9.964;2022-12-07T10:07:42;3.10;99.90
67897;DHT22;54698;48.428;9.964;2022-12-07T10:10:20;3.20;99.90
67897;DHT22;54698;48.428;9.964;2022-12-07T10:12:55;3.20;99.90
67897;DHT22;54698;48.428;9.964;2022-12-07T10:15:22;3.30;99.90
67897;DHT22;54698;48.428;9.964;2022-12-07T10:17:51;3.30;99.90
67897;DHT22;54698;48.428;9.964;2022-12-07T10:20:20;3.30;99.90
67897;DHT22;54698;48.428;9.964;2022-12-07T10:22:56;3.20;99.90
67897;DHT22;54698;48.428;9.964;2022-12-07T10:25:27;3.20;99.90
67897;DHT22;54698;48.428;9.964;2022-12-07T10:27:58;3.40;99.90
67897;DHT22;54698;48.428;9.964;2022-12-07T10:30:26;3.40;99.90
67897;DHT22;54698;48.428;9.964;2022-12-07T10:32:53;3.30;99.90
67897;DHT22;54698;48.428;9.964;2022-12-07T10:35:23;3.40;99.90
67897;DHT22;54698;48.428;9.964;2022-12-07T10:37:52;3.30;99.90
67897;DHT22;54698;48.428;9.964;2022-12-07T10:40:26;3.40;99.90
67897;DHT22;54698;48.428;9.964;2022-12-07T10:43:15;3.50;99.90
67897;DHT22;54698;48.428;9.964;2022-12-07T10:46:05;3.60;99.90
67897;DHT22;54698;48.428;9.964;2022-12-07T10:48:46;3.60;99.90
67897;DHT22;54698;48.428;9.964;2022-12-07T10:51:24;3.60;99.90
67897;DHT22;54698;48.428;9.964;2022-12-07T10:53:59;3.60;99.90
67897;DHT22;54698;48.428;9.964;2022-12-07T10:56:39;3.70;99.90
67897;DHT22;54698;48.428;9.964;2022-12-07T10:59:30;3.80;99.90
67897;DHT22;54698;48.428;9.964;2022-12-07T11:02:21;3.70;99.90
67897;DHT22;54698;48.428;9.964;2022-12-07T11:05:11;3.80;99.90
67897;DHT22;54698;48.428;9.964;2022-12-07T11:07:49;3.90;99.90
67897;DHT22;54698;48.428;9.964;2022-12-07T11:10:22;4.00;99.90
67897;DHT22;54698;48.428;9.964;2022-12-07T11:13:03;4.00;99.90
67897;DHT22;54698;48.428;9.964;2022-12-07T11:15:47;4.00;99.90
67897;DHT22;54698;48.428;9.964;2022-12-07T11:18:36;4.10;99.90
67897;DHT22;54698;48.428;9.964;2022-12-07T11:21:14;4.20;99.90
67897;DHT22;54698;48.428;9.964;2022-12-07T11:23:49;4.20;99.90
67897;DHT22;54698;48.428;9.964;2022-12-07T11:26:34;4.30;99.90
67897;DHT22;54698;48.428;9.964;2022-12-07T11:29:24;4.20;99.90
67897;DHT22;54698;48.428;9.964;2022-12-07T11:32:02;4.20;99.90
67897;DHT22;54698;48.428;9.964;2022-12-07T11:34:42;4.20;99.90
67897;DHT22;54698;48.428;9.964;2022-12-07T11:37:21;4.00;99.90
67897;DHT22;54698;48.428;9.964;2022-12-07T11:39:54;4.00;99.90
67897;DHT22;54698;48.428;9.964;2022-12-07T11:42:29;4.00;99.90
67897;DHT22;54698;48.428;9.964;2022-12-07T11:45:02;3.90;99.90
67897;DHT22;54698;48.428;9.964;2022-12-07T11:47:36;3.80;99.90
67897;DHT22;54698;48.428;9.964;2022-12-07T11:50:14;3.80;99.90
67897;DHT22;54698;48.428;9.964;2022-12-07T11:52:53;3.90;99.90
67897;DHT22;54698;48.428;9.964;2022-12-07T11:55:26;4.00;99.90
67897;DHT22;54698;48.428;9.964;2022-12-07T11:58:00;3.90;99.90
67897;DHT22;54698;48.428;9.964;2022-12-07T12:00:30;3.90;99.90
67897;DHT22;54698;48.428;9.964;2022-12-07T12:03:01;4.00;99.90
67897;DHT22;54698;48.428;9.964;2022-12-07T12:05:29;3.90;99.90
67897;DHT22;54698;48.428;9.964;2022-12-07T12:08:01;3.90;99.90
67897;DHT22;54698;48.428;9.964;2022-12-07T12:10:41;4.00;99.90
67897;DHT22;54698;48.428;9.964;2022-12-07T12:13:45;4.00;99.90
67897;DHT22;54698;48.428;9.964;2022-12-07T12:16:58;3.90;99.90
67897;DHT22;54698;48.428;9.964;2022-12-07T12:20:00;3.90;99.90
67897;DHT22;54698;48.428;9.964;2022-12-07T12:22:34;3.90;99.90
67897;DHT22;54698;48.428;9.964;2022-12-07T12:25:05;4.00;99.90
67897;DHT22;54698;48.428;9.964;2022-12-07T12:27:34;4.00;99.90
67897;DHT22;54698;48.428;9.964;2022-12-07T12:30:03;3.90;99.90
67897;DHT22;54698;48.428;9.964;2022-12-07T12:32:38;3.90;99.90
67897;DHT22;54698;48.428;9.964;2022-12-07T12:35:28;3.80;99.90
67897;DHT22;54698;48.428;9.964;2022-12-07T12:37:57;3.80;99.90
67897;DHT22;54698;48.428;9.964;2022-12-07T12:40:57;3.70;99.90
67897;DHT22;54698;48.428;9.964;2022-12-07T12:43:45;3.80;99.90
67897;DHT22;54698;48.428;9.964;2022-12-07T12:49:43;3.90;99.90
67897;DHT22;54698;48.428;9.964;2022-12-07T12:58:49;3.80;99.90
67897;DHT22;54698;48.428;9.964;2022-12-07T13:02:12;3.80;99.90
67897;DHT22;54698;48.428;9.964;2022-12-07T13:04:52;3.80;99.90
67897;DHT22;54698;48.428;9.964;2022-12-07T13:07:54;3.70;99.90
67897;DHT22;54698;48.428;9.964;2022-12-07T13:10:44;3.70;99.90
67897;DHT22;54698;48.428;9.964;2022-12-07T13:13:34;3.70;99.90
67897;DHT22;54698;48.428;9.964;2022-12-07T13:22:49;3.60;99.90
67897;DHT22;54698;48.428;9.964;2022-12-07T13:25:28;3.60;99.90
67897;DHT22;54698;48.428;9.964;2022-12-07T13:28:00;3.60;99.90
67897;DHT22;54698;48.428;9.964;2022-12-07T13:30:30;3.70;99.90
67897;DHT22;54698;48.428;9.964;2022-12-07T13:32:58;3.80;99.90
67897;DHT22;54698;48.428;9.964;2022-12-07T13:35:32;3.80;99.90
67897;DHT22;54698;48.428;9.964;2022-12-07T13:38:02;3.90;99.90
67897;DHT22;54698;48.428;9.964;2022-12-07T13:40:30;4.00;99.90
67897;DHT22;54698;48.428;9.964;2022-12-07T13:42:59;4.00;99.90
67897;DHT22;54698;48.428;9.964;2022-12-07T13:45:27;4.10;99.90
67897;DHT22;54698;48.428;9.964;2022-12-07T13:47:57;4.10;99.90
67897;DHT22;54698;48.428;9.964;2022-12-07T13:50:27;4.10;99.90
67897;DHT22;54698;48.428;9.964;2022-12-07T13:52:56;4.20;99.90
67897;DHT22;54698;48.428;9.964;2022-12-07T13:55:23;4.30;99.90
67897;DHT22;54698;48.428;9.964;2022-12-07T13:57:51;4.30;99.90
67897;DHT22;54698;48.428;9.964;2022-12-07T14:00:20;4.30;99.90
67897;DHT22;54698;48.428;9.964;2022-12-07T14:02:57;4.20;99.90
67897;DHT22;54698;48.428;9.964;2022-12-07T14:05:27;4.20;99.90
67897;DHT22;54698;48.428;9.964;2022-12-07T14:07:55;4.20;99.90
67897;DHT22;54698;48.428;9.964;2022-12-07T14:10:25;4.20;99.90
67897;DHT22;54698;48.428;9.964;2022-12-07T14:12:52;4.10;99.90
67897;DHT22;54698;48.428;9.964;2022-12-07T14:15:21;4.10;99.90
67897;DHT22;54698;48.428;9.964;2022-12-07T14:17:56;4.10;99.90
67897;DHT22;54698;48.428;9.964;2022-12-07T14:20:30;4.00;99.90
67897;DHT22;54698;48.428;9.964;2022-12-07T14:22:58;3.90;99.90
67897;DHT22;54698;48.428;9.964;2022-12-07T14:25:26;4.00;99.90
67897;DHT22;54698;48.428;9.964;2022-12-07T14:27:55;4.00;99.90
67897;DHT22;54698;48.428;9.964;2022-12-07T14:30:24;4.10;99.90
67897;DHT22;54698;48.428;9.964;2022-12-07T14:32:57;4.00;99.90
67897;DHT22;54698;48.428;9.964;2022-12-07T14:35:24;4.10;99.90
67897;DHT22;54698;48.428;9.964;2022-12-07T14:37:50;4.10;99.90
67897;DHT22;54698;48.428;9.964;2022-12-07T14:40:19;4.10;99.90
67897;DHT22;54698;48.428;9.964;2022-12-07T14:42:48;4.00;99.90
67897;DHT22;54698;48.428;9.964;2022-12-07T14:45:19;3.90;99.90
67897;DHT22;54698;48.428;9.964;2022-12-07T14:47:46;3.90;99.90
67897;DHT22;54698;48.428;9.964;2022-12-07T14:50:16;3.80;99.90
67897;DHT22;54698;48.428;9.964;2022-12-07T14:52:47;3.80;99.90
67897;DHT22;54698;48.428;9.964;2022-12-07T14:55:23;3.70;99.90
67897;DHT22;54698;48.428;9.964;2022-12-07T14:57:50;3.60;99.90
67897;DHT22;54698;48.428;9.964;2022-12-07T15:00:18;3.50;99.90
67897;DHT22;54698;48.428;9.964;2022-12-07T15:02:46;3.50;99.90
67897;DHT22;54698;48.428;9.964;2022-12-07T15:05:14;3.40;99.90
67897;DHT22;54698;48.428;9.964;2022-12-07T15:07:41;3.30;99.90
67897;DHT22;54698;48.428;9.964;2022-12-07T15:10:14;3.10;99.90
67897;DHT22;54698;48.428;9.964;2022-12-07T15:12:42;3.10;99.90
67897;DHT22;54698;48.428;9.964;2022-12-07T15:15:09;3.20;99.90
67897;DHT22;54698;48.428;9.964;2022-12-07T15:17:35;3.10;99.90
67897;DHT22;54698;48.428;9.964;2022-12-07T15:20:01;3.10;99.90
67897;DHT22;54698;48.428;9.964;2022-12-07T15:22:29;3.00;99.90
67897;DHT22;54698;48.428;9.964;2022-12-07T15:24:55;3.00;99.90
67897;DHT22;54698;48.428;9.964;2022-12-07T15:27:21;2.90;99.90
67897;DHT22;54698;48.428;9.964;2022-12-07T15:29:47;2.80;99.90
67897;DHT22;54698;48.428;9.964;2022-12-07T15:32:13;2.70;99.90
67897;DHT22;54698;48.428;9.964;2022-12-07T15:34:39;2.60;99.90
67897;DHT22;54698;48.428;9.964;2022-12-07T15:37:05;2.60;99.90
67897;DHT22;54698;48.428;9.964;2022-12-07T15:39:35;2.60;99.90
67897;DHT22;54698;48.428;9.964;2022-12-07T15:42:02;2.70;99.90
67897;DHT22;54698;48.428;9.964;2022-12-07T15:47:31;2.80;99.90
67897;DHT22;54698;48.428;9.964;2022-12-07T15:49:58;2.80;99.90
67897;DHT22;54698;48.428;9.964;2022-12-07T15:52:27;2.70;99.90
67897;DHT22;54698;48.428;9.964;2022-12-07T15:55:18;2.50;99.90
67897;DHT22;54698;48.428;9.964;2022-12-07T15:57:45;2.50;99.90
67897;DHT22;54698;48.428;9.964;2022-12-07T16:00:11;2.50;99.90
67897;DHT22;54698;48.428;9.964;2022-12-07T16:02:40;2.50;99.90
67897;DHT22;54698;48.428;9.964;2022-12-07T16:05:06;2.60;99.90
67897;DHT22;54698;48.428;9.964;2022-12-07T16:07:32;2.60;99.90
67897;DHT22;54698;48.428;9.964;2022-12-07T16:09:59;2.50;99.90
67897;DHT22;54698;48.428;9.964;2022-12-07T16:12:35;2.50;99.90
67897;DHT22;54698;48.428;9.964;2022-12-07T16:15:01;2.40;99.90
67897;DHT22;54698;48.428;9.964;2022-12-07T16:17:27;2.20;99.90
67897;DHT22;54698;48.428;9.964;2022-12-07T16:19:53;2.20;99.90
67897;DHT22;54698;48.428;9.964;2022-12-07T16:22:19;2.10;99.90
67897;DHT22;54698;48.428;9.964;2022-12-07T16:24:44;2.10;99.90
67897;DHT22;54698;48.428;9.964;2022-12-07T16:27:11;2.00;99.90
67897;DHT22;54698;48.428;9.964;2022-12-07T16:29:38;2.00;99.90